Terminal Aerodrome Forecast
Issued by NWS

Home | Current Version | Previous Version | Text Only | Print | Product List | Glossary On
Versions: 1 2 3 4 5 6 7 8 9 10 11 12 13 14 15 16 17 18 19 20 21 22 23 24 25 26 27 28 29
000
FTUS43 KPAH 050520
TAFOWB
TAF
KOWB 050520Z 0506/0606 VRB04KT P6SM BKN200
     FM051500 04004KT P6SM VCSH SCT050 BKN150
      TEMPO 0518/0522 3SM -TSRA BR BKN035CB
     FM052200 18004KT P6SM VCSH BKN050=

USA.gov is the U.S. government's official web portal to all federal, state and local government web resources and services.